Hlavní strana
METAR-TAF:

METAR-TAF

Letiště :

Fort Smith, Severozápadní teritoria, Kanada

zeměpisná šířka: 60-01N, zeměpisná délka: 111-57W, výška: 203 m

Aktuální stav počasí

Zpráva byla vytvořena před 1 hodinou a 10 minutami, v 10:00 UTC
Jihovýchodní vítr 6 kt
Teplota -28°C
Vlhkost vzduchu 75%
Tlak 1030 hPa
Viditelnost: 24.1 km
Skoro jasno ve výšce 16000 ft
Oblačno až skoro zataženo ve výšce 22000 ft

METAR: CYSM 181000Z 14006KT 15SM FEW160 BKN220 M28/M31 A3042 RMK AC2CS4 FROIN HALO SLP333

Čas: 04:10 (11:10 UTC)

Předpověď počasí

Zpráva byla vytvořena před 5 hodinami a 30 minutami, v 05:40 UTC
Předpověď platná od 18 v 06 UTC do 18 v 18 UTC
Jihojihovýchodní vítr 7 kt
Viditelnost: 10 km
Skoro jasno ve výšce 22000 ft
Dočasný
od 18 v 08 UTC do 18 v 13 UTC
Oblačno až skoro zataženo ve výšce 22000 ft

TAF: CYSM 180540Z 1806/1818 15007KT P6SM FEW220 TEMPO 1808/1813 BKN220 RMK NXT FCST BY 181200Z

Stav a předpovědi počasí z více než 4 000 letišť (zprávy METAR a TAF).

Červené a žluté tečky na mapě představují dostupné meteorologické stanice.

Když kurzor umístíte na tečku, zobrazí se název stanice.

Pak kliknutím zobrazíte stav a předpověď počasí.

Chcete-li změnit mapu, kliknutím na zelené tlačítko se znaménkem +mapu přiblížíte, kliknutím na zelené tlačítko se znaménkem – mapu oddálíte a kliknutím na zelené šipky přejdete na sousední mapy.


METAR-TAF: